Tallassee, AL (36023)

10:33 AM CDT on September 05, 2015 (GMT -0500)
Franklyn Farm | | Change Station
CLOSE
Current Station
Personal Weather Station
Location: Tallassee, AL
Elevation: 435 ft
Nearby Weather Stations

Elev 435 ft 32.57 °N, 85.95 °W | Updated 10 minutes ago

Clear
Clear
92.5 °F
Feels Like 104 °F
N
2.7
Wind Variable Wind from ENE

Today
High -- | Low -- °F
--% Chance of Precip.
Yesterday
High -- | Low -- °F
Precip. -- in
6:20 AM 7:02 PM
Waning Gibbous, 47% visible
Pressure 30.14 in
Visibility -9999.0 miles
Clouds Clear
Heat Index 104 °F
Dew Point 75 °F
Humidity 57%
Rainfall 0.00 in
Snow Depth Not available.
UV 6 out of 12
Pollen 9.10 out of 12
Air Quality Not available.
Flu Activity Not available.
METAR KAUO 051456Z AUTO 09010KT CLR 27/22 A3012 RMK AO2 SLP207 T02720217 51015 PWINO $
Pressure 30.14 in
Visibility -9999.0 miles
Clouds Clear
Heat Index 104 °F
Dew Point 75 °F
Humidity 57%
Rainfall 0.00 in
Snow Depth Not available.
UV 6 out of 12
Pollen 9.10 out of 12
Air Quality Not available.
Flu Activity Not available.
METAR KAUO 051456Z AUTO 09010KT CLR 27/22 A3012 RMK AO2 SLP207 T02720217 51015 PWINO $

10-Day Weather Forecast

×

Almanac

Astronomy

Sep. 05, 2015 Rise Set
Actual Time
Civil Twilight
Nautical Twilight
Astronomical Twilight
Moon
Length of Visible Light
Length of Day
Tomorrow will be .
, % of the Moon is Illuminated

Today's Extremes

State Highs State Lows

Community

WunderPhotos

Upload Photos

1,852,482 photos uploaded!

WunderBlogs® & News

Nearby

Air Quality

  Air Quality AQ Index Pollutant
Not available.

Snow Depth

Station Depth Elevation

Earthquake Activity

City Distance Mag. Time & Date
Minimum magnitude displayed is 2.5.

Coastal Water Temperatures

Place Temperature

Stations

Nearby Weather Stations

Station Location Temp. Windchill Dew Point Humidity Wind Precip. Elev Updated Type